Newville, PA

2:36 PM EST on March 04, 2015 (GMT -0500)
Fountain Dale | Change Station
CLOSE
Current Station
Airport
Location: Fountain Dale,
Elevation: 899 ft
Nearby Weather Stations
Active Advisory: Winter Storm Warning Active Notice: Public Information Statement

Elev 899 ft 39.73 °N, 77.43 °W | Updated 43 minutes ago

Rain
Rain
47 °F
Feels Like 47 °F
N
0
Wind Variable Wind from North

Today
High -- | Low -- °F
--% Chance of Precip.
Yesterday
High -- | Low -- °F
Precip. -- in
6:38 AM 6:04 PM
Waxing Gibbous, 99% visible
Pressure 29.84 in
Visibility 10.0 miles
Clouds Scattered Clouds 8500 ft
Overcast 11000 ft
Dew Point 39 °F
Humidity 74%
Rainfall 0.06 in
Snow Depth Not available.
UV 2 out of 12
Pollen .50 out of 12
Air Quality Not available.
Flu Activity Not available.
METAR KRYT 041853Z AUTO 00000KT 10SM SCT085 OVC110 08/04 A2981 RMK AO2 RAB35E46 SLP104 P0000 T00830039 $

More Conditions Fewer Conditions

Pressure 29.84 in
Visibility 10.0 miles
Clouds Scattered Clouds 8500 ft
Overcast 11000 ft
Dew Point 39 °F
Humidity 74%
Rainfall 0.06 in
Snow Depth Not available.
UV 2 out of 12
Pollen .50 out of 12
Air Quality Not available.
Flu Activity Not available.
METAR KRYT 041853Z AUTO 00000KT 10SM SCT085 OVC110 08/04 A2981 RMK AO2 RAB35E46 SLP104 P0000 T00830039 $

More Conditions Fewer Conditions

10-Day Weather Forecast

Almanac

Astronomy

Mar. 04, 2015 Rise Set
Actual Time
Civil Twilight
Nautical Twilight
Astronomical Twilight
Moon
Length of Visible Light
Length of Day
Tomorrow will be .
, % of the Moon is Illuminated

Today's Extremes

State Highs State Lows

Community

WunderPhotos

Upload Photos

1,802,559 photos uploaded!

WunderBlogs® & News

Nearby

Air Quality

  Air Quality AQ Index Pollutant
Not available.

Snow Depth

Station Depth Elevation

Earthquake Activity

City Distance Mag. Time & Date
Minimum magnitude displayed is 2.5.

Coastal Water Temperatures

Place Temperature

Nearby Weather Stations

Winter Storm Warning
Statement as of 1:46 PM EST on March 04, 2015

... Winter Storm Warning remains in effect from 7 PM this evening
to 7 PM EST Thursday...

* accumulations... snow accumulation of 5 to 7 inches.

* Hazard types... snow.

* Timing... snow will redevelop this evening and continue overnight
into Thursday.

* Impacts... hazardous travel.

* Temperatures..20s to lower 30s.

Precautionary/preparedness actions...

Dangerous winter weather conditions are expected or occurring.
Use extreme caution if traveling. For the latest weather
information... go to weather.Gov/statecollege or monitor NOAA
Weather Radio.

Report snow or ice accumulation to the National Weather Service
State College by sending an email to ctp.Stormreports@noaa.Gov...
posting to the NWS State College facebook Page... or tweet
@nwsstatecollege with the hashtag c... T... p... W... x.